createdAt,value
2018-09-22T00:01:40.544Z,99.90
2018-09-22T00:04:07.770Z,99.90
2018-09-22T00:06:35.101Z,99.90
2018-09-22T00:09:02.583Z,99.90
2018-09-22T00:11:29.867Z,99.90
2018-09-22T00:13:57.088Z,99.90
2018-09-22T00:16:24.307Z,99.90
2018-09-22T00:18:51.634Z,99.90
2018-09-22T00:21:18.904Z,99.90
2018-09-22T00:23:46.192Z,99.90
2018-09-22T00:26:13.422Z,99.90
2018-09-22T00:28:40.649Z,99.90
2018-09-22T00:31:07.880Z,99.90
2018-09-22T00:33:35.148Z,99.90
2018-09-22T00:36:02.383Z,99.90
2018-09-22T00:38:29.687Z,99.90
2018-09-22T00:40:56.915Z,99.90
2018-09-22T00:43:24.160Z,99.90
2018-09-22T00:45:51.387Z,99.90
2018-09-22T00:48:18.715Z,99.90
2018-09-22T00:50:45.963Z,99.90
2018-09-22T00:55:55.838Z,99.90
2018-09-22T00:58:23.067Z,99.90
2018-09-22T01:00:50.299Z,99.90
2018-09-22T01:03:17.519Z,99.90
2018-09-22T01:05:44.738Z,99.90
2018-09-22T01:08:11.963Z,99.90
2018-09-22T01:10:39.175Z,99.90
2018-09-22T01:13:06.470Z,99.90
2018-09-22T01:15:33.743Z,99.90
2018-09-22T01:18:01.069Z,99.90
2018-09-22T01:20:28.375Z,99.90
2018-09-22T01:22:55.600Z,99.90
2018-09-22T01:25:22.948Z,99.90
2018-09-22T01:27:50.241Z,99.90
2018-09-22T01:30:17.539Z,99.90
2018-09-22T01:32:44.811Z,99.90
2018-09-22T01:35:12.078Z,99.90
2018-09-22T01:37:39.311Z,99.90
2018-09-22T01:40:06.649Z,99.90
2018-09-22T01:42:33.866Z,99.90
2018-09-22T01:45:01.104Z,99.90
2018-09-22T01:47:28.331Z,99.90
2018-09-22T01:49:55.627Z,99.90
2018-09-22T01:52:22.889Z,99.90
2018-09-22T01:54:50.250Z,99.90
2018-09-22T01:57:17.815Z,99.90
2018-09-22T01:59:45.142Z,99.90
2018-09-22T02:02:13.105Z,99.90
2018-09-22T02:04:40.338Z,99.90
2018-09-22T02:07:07.601Z,99.90
2018-09-22T02:09:34.861Z,99.90
2018-09-22T02:12:02.108Z,99.90
2018-09-22T02:14:29.323Z,99.90
2018-09-22T02:16:56.515Z,99.90
2018-09-22T02:19:23.783Z,99.90
2018-09-22T02:21:50.990Z,99.90
2018-09-22T02:24:18.402Z,99.90
2018-09-22T02:26:45.707Z,99.90
2018-09-22T02:29:12.950Z,99.90
2018-09-22T02:31:40.369Z,99.90
2018-09-22T02:34:07.672Z,99.90
2018-09-22T02:36:34.891Z,99.90
2018-09-22T02:39:02.360Z,99.90
2018-09-22T02:41:29.613Z,99.90
2018-09-22T02:43:56.975Z,99.90
2018-09-22T02:46:24.280Z,99.90
2018-09-22T02:48:51.503Z,99.90
2018-09-22T02:51:18.715Z,99.90
2018-09-22T02:53:46.004Z,99.90
2018-09-22T02:56:13.296Z,99.90
2018-09-22T02:58:40.503Z,99.90
2018-09-22T03:01:07.784Z,99.90
2018-09-22T03:03:34.999Z,99.90
2018-09-22T03:06:02.258Z,99.90
2018-09-22T03:08:29.495Z,99.90
2018-09-22T03:10:56.813Z,99.90
2018-09-22T03:13:24.111Z,99.90
2018-09-22T03:15:51.323Z,99.90
2018-09-22T03:18:18.704Z,99.90
2018-09-22T03:20:45.907Z,99.90
2018-09-22T03:23:13.125Z,99.90
2018-09-22T03:25:40.338Z,99.90
2018-09-22T03:28:07.571Z,99.90
2018-09-22T03:30:34.829Z,99.90
2018-09-22T03:33:02.058Z,99.90
2018-09-22T03:35:29.296Z,99.90
2018-09-22T03:37:56.667Z,99.90
2018-09-22T03:40:23.952Z,99.90
2018-09-22T03:42:51.204Z,99.90
2018-09-22T03:45:18.442Z,99.90
2018-09-22T03:47:45.766Z,99.90
2018-09-22T03:50:12.998Z,99.90
2018-09-22T03:52:40.277Z,99.90
2018-09-22T03:55:07.423Z,99.90
2018-09-22T03:57:34.667Z,99.90
2018-09-22T04:00:01.999Z,99.90
2018-09-22T04:02:29.317Z,99.90
2018-09-22T04:04:56.571Z,99.90
2018-09-22T04:07:23.791Z,99.90
2018-09-22T04:09:51.034Z,99.90
2018-09-22T04:12:18.291Z,99.90
2018-09-22T04:14:45.591Z,99.90
2018-09-22T04:17:14.465Z,99.90
2018-09-22T04:19:41.803Z,99.90
2018-09-22T04:22:09.039Z,99.90
2018-09-22T04:24:36.261Z,99.90
2018-09-22T04:27:15.811Z,99.90
2018-09-22T04:29:45.114Z,99.90
2018-09-22T04:32:12.327Z,99.90
2018-09-22T04:34:39.652Z,99.90
2018-09-22T04:37:07.024Z,99.90
2018-09-22T04:39:34.267Z,99.90
2018-09-22T04:42:01.495Z,99.90
2018-09-22T04:44:46.136Z,99.90
2018-09-22T04:47:14.795Z,99.90
2018-09-22T04:49:42.030Z,99.90
2018-09-22T04:52:09.280Z,99.90
2018-09-22T04:54:36.545Z,99.90
2018-09-22T04:57:03.779Z,99.90
2018-09-22T04:59:31.089Z,99.90
2018-09-22T05:01:58.319Z,99.90
2018-09-22T05:04:25.540Z,99.90
2018-09-22T05:06:52.885Z,99.90
2018-09-22T05:09:20.124Z,99.90
2018-09-22T05:11:47.338Z,99.90
2018-09-22T05:14:14.570Z,99.90
2018-09-22T05:16:41.798Z,99.90
2018-09-22T05:19:09.042Z,99.90
2018-09-22T05:21:36.292Z,99.90
2018-09-22T05:24:03.523Z,99.90
2018-09-22T05:26:30.743Z,99.90
2018-09-22T05:28:57.964Z,99.90
2018-09-22T05:31:25.217Z,99.90
2018-09-22T05:33:52.583Z,99.90
2018-09-22T05:36:20.180Z,99.90
2018-09-22T05:38:47.405Z,99.90
2018-09-22T05:41:14.679Z,99.90
2018-09-22T05:43:41.915Z,99.90
2018-09-22T05:46:17.311Z,99.90
2018-09-22T05:48:44.534Z,99.90
2018-09-22T05:51:15.217Z,99.90
2018-09-22T05:53:45.998Z,99.90
2018-09-22T05:56:13.255Z,99.90
2018-09-22T05:58:42.980Z,99.90
2018-09-22T06:01:10.302Z,99.90
2018-09-22T06:03:49.093Z,99.90
2018-09-22T06:06:16.282Z,99.90
2018-09-22T06:08:43.515Z,99.90
2018-09-22T06:11:10.855Z,99.90
2018-09-22T06:13:40.488Z,99.90
2018-09-22T06:16:07.899Z,99.90
2018-09-22T06:18:35.131Z,99.90
2018-09-22T06:21:04.967Z,99.90
2018-09-22T06:23:33.072Z,99.90
2018-09-22T06:26:00.320Z,99.90
2018-09-22T06:28:27.682Z,99.90
2018-09-22T06:30:54.883Z,99.90
2018-09-22T06:33:23.035Z,99.90
2018-09-22T06:35:50.303Z,99.90
2018-09-22T06:38:17.538Z,99.90
2018-09-22T06:40:44.783Z,99.90
2018-09-22T06:43:12.020Z,99.90
2018-09-22T06:45:39.331Z,99.90
2018-09-22T06:48:07.744Z,99.90
2018-09-22T06:50:35.102Z,99.90
2018-09-22T06:53:02.835Z,99.90
2018-09-22T06:55:30.097Z,99.90
2018-09-22T06:58:00.268Z,99.90
2018-09-22T07:00:27.515Z,99.90
2018-09-22T07:02:54.844Z,99.90
2018-09-22T07:05:22.086Z,99.90
2018-09-22T07:07:49.479Z,99.90
2018-09-22T07:10:16.738Z,99.90
2018-09-22T07:12:44.646Z,99.90
2018-09-22T07:15:12.100Z,99.90
2018-09-22T07:17:44.478Z,99.90
2018-09-22T07:20:15.110Z,99.90
2018-09-22T07:22:54.102Z,99.90
2018-09-22T07:25:25.490Z,99.90
2018-09-22T07:27:52.678Z,99.90
2018-09-22T07:30:20.214Z,99.90
2018-09-22T07:32:47.539Z,99.90
2018-09-22T07:35:14.887Z,99.90
2018-09-22T07:37:42.132Z,99.90
2018-09-22T07:40:09.386Z,99.90
2018-09-22T07:42:36.701Z,99.90
2018-09-22T07:45:04.015Z,99.90
2018-09-22T07:47:31.363Z,99.90
2018-09-22T07:49:58.844Z,99.90
2018-09-22T07:52:30.465Z,99.90
2018-09-22T07:55:01.441Z,99.90
2018-09-22T08:02:23.535Z,99.90
2018-09-22T08:04:50.782Z,98.80
2018-09-22T08:07:18.027Z,98.30
2018-09-22T08:09:45.242Z,98.80
2018-09-22T08:12:12.631Z,98.30
2018-09-22T08:14:39.869Z,99.40
2018-09-22T08:17:07.132Z,96.70
2018-09-22T08:19:34.354Z,96.80
2018-09-22T08:22:01.625Z,97.70
2018-09-22T08:24:28.898Z,98.00
2018-09-22T08:26:57.319Z,98.10
2018-09-22T08:29:24.572Z,98.00
2018-09-22T08:31:51.957Z,97.00
2018-09-22T08:34:19.183Z,96.90
2018-09-22T08:36:46.520Z,95.90
2018-09-22T08:41:41.739Z,99.90
2018-09-22T08:44:08.971Z,95.30
2018-09-22T08:46:36.507Z,92.60
2018-09-22T08:49:03.735Z,93.00
2018-09-22T08:51:31.809Z,91.70
2018-09-22T08:53:59.105Z,90.70
2018-09-22T08:56:26.322Z,90.40
2018-09-22T08:58:53.740Z,88.90
2018-09-22T09:01:21.128Z,98.00
2018-09-22T09:06:15.615Z,99.90
2018-09-22T09:08:42.870Z,86.50
2018-09-22T09:11:10.132Z,81.70
2018-09-22T09:13:37.547Z,84.50
2018-09-22T09:16:04.834Z,83.40
2018-09-22T09:18:32.071Z,83.00
2018-09-22T09:20:59.353Z,83.90
2018-09-22T09:23:26.707Z,83.80
2018-09-22T09:25:54.050Z,82.00
2018-09-22T09:28:21.275Z,76.90
2018-09-22T09:30:49.345Z,74.20
2018-09-22T09:33:16.562Z,69.20
2018-09-22T09:35:43.811Z,69.20
2018-09-22T09:38:11.304Z,67.10
2018-09-22T09:40:38.631Z,67.70
2018-09-22T09:43:05.906Z,65.40
2018-09-22T09:45:33.261Z,64.50
2018-09-22T09:48:01.303Z,64.40
2018-09-22T09:50:28.571Z,62.00
2018-09-22T09:52:56.214Z,59.40
2018-09-22T09:55:23.467Z,61.90
2018-09-22T09:57:50.714Z,62.30
2018-09-22T10:00:22.564Z,64.40
2018-09-22T10:02:49.799Z,65.80
2018-09-22T10:05:17.401Z,65.50
2018-09-22T10:07:44.618Z,65.80
2018-09-22T10:10:11.851Z,67.20
2018-09-22T10:12:39.111Z,68.20
2018-09-22T10:15:06.571Z,67.20
2018-09-22T10:17:33.896Z,63.80
2018-09-22T10:20:01.367Z,61.80
2018-09-22T10:22:29.675Z,58.00
2018-09-22T10:24:57.172Z,50.60
2018-09-22T10:27:24.588Z,50.40
2018-09-22T10:29:51.836Z,47.90
2018-09-22T10:32:19.361Z,42.80
2018-09-22T10:37:13.843Z,38.60
2018-09-22T10:39:41.117Z,38.70
2018-09-22T10:42:08.420Z,39.10
2018-09-22T10:44:35.630Z,39.90
2018-09-22T10:47:03.313Z,42.40
2018-09-22T10:49:30.815Z,42.50
2018-09-22T10:51:58.593Z,39.80
2018-09-22T10:54:26.743Z,39.40
2018-09-22T10:56:54.161Z,38.30
2018-09-22T10:59:21.394Z,38.40
2018-09-22T11:01:48.756Z,39.50
2018-09-22T11:04:16.256Z,40.80
2018-09-22T11:06:43.549Z,42.20
2018-09-22T11:09:10.905Z,42.60
2018-09-22T11:11:38.211Z,41.80
2018-09-22T11:14:05.981Z,41.90
2018-09-22T11:16:33.215Z,42.20
2018-09-22T11:19:00.480Z,41.50
2018-09-22T11:21:27.682Z,41.50
2018-09-22T11:23:54.904Z,39.60
2018-09-22T11:26:22.134Z,37.50
2018-09-22T11:28:49.442Z,36.30
2018-09-22T11:31:16.699Z,37.30
2018-09-22T11:33:43.999Z,39.50
2018-09-22T11:36:11.260Z,38.80
2018-09-22T11:38:38.678Z,39.10
2018-09-22T11:41:05.911Z,38.00
2018-09-22T11:43:33.196Z,40.00
2018-09-22T11:46:00.560Z,41.40
2018-09-22T11:48:27.882Z,42.00
2018-09-22T11:50:55.115Z,41.70
2018-09-22T11:53:22.360Z,42.60
2018-09-22T11:55:49.700Z,42.80
2018-09-22T11:58:21.637Z,43.00
2018-09-22T12:00:48.862Z,42.70
2018-09-22T12:03:16.072Z,43.40
2018-09-22T12:05:43.400Z,44.30
2018-09-22T12:08:10.698Z,44.00
2018-09-22T12:10:38.230Z,44.60
2018-09-22T12:13:05.680Z,44.40
2018-09-22T12:15:32.896Z,44.30
2018-09-22T12:18:00.105Z,43.40
2018-09-22T12:20:27.919Z,42.00
2018-09-22T12:22:55.180Z,40.70
2018-09-22T12:25:22.394Z,40.00
2018-09-22T12:27:49.681Z,38.10
2018-09-22T12:30:16.962Z,37.70
2018-09-22T12:32:44.222Z,37.20
2018-09-22T12:35:11.500Z,37.20
2018-09-22T12:37:38.726Z,37.80
2018-09-22T12:40:06.039Z,37.80
2018-09-22T12:42:33.270Z,38.40
2018-09-22T12:45:00.494Z,38.00
2018-09-22T12:47:27.724Z,36.30
2018-09-22T12:52:22.457Z,30.40
2018-09-22T12:54:49.680Z,30.40
2018-09-22T12:59:45.150Z,29.10
2018-09-22T13:02:12.412Z,30.40
2018-09-22T13:04:40.381Z,32.20
2018-09-22T13:07:07.644Z,32.80
2018-09-22T13:09:34.918Z,32.40
2018-09-22T13:12:02.216Z,32.00
2018-09-22T13:14:32.302Z,32.30
2018-09-22T13:16:59.643Z,33.10
2018-09-22T13:19:27.432Z,33.40
2018-09-22T13:21:54.684Z,33.70
2018-09-22T13:24:21.899Z,34.40
2018-09-22T13:26:49.238Z,34.60
2018-09-22T13:29:16.423Z,34.60
2018-09-22T13:31:43.663Z,34.60
2018-09-22T13:34:10.883Z,33.90
2018-09-22T13:36:38.147Z,37.30
2018-09-22T13:39:11.543Z,35.40
2018-09-22T13:41:39.186Z,34.80
2018-09-22T13:44:06.611Z,34.20
2018-09-22T13:46:33.904Z,33.70
2018-09-22T13:49:01.134Z,33.50
2018-09-22T13:51:28.571Z,33.40
2018-09-22T13:53:55.879Z,33.40
2018-09-22T13:56:23.116Z,31.10
2018-09-22T13:58:50.306Z,32.60
2018-09-22T14:01:17.534Z,32.50
2018-09-22T14:03:44.750Z,32.70
2018-09-22T14:06:11.982Z,32.60
2018-09-22T14:08:39.175Z,30.40
2018-09-22T14:11:06.423Z,29.70
2018-09-22T14:13:33.625Z,27.40
2018-09-22T14:16:00.867Z,27.30
2018-09-22T14:18:28.106Z,26.70
2018-09-22T14:20:55.450Z,27.70
2018-09-22T14:23:22.770Z,28.30
2018-09-22T14:25:49.974Z,28.60
2018-09-22T14:28:17.231Z,28.10
2018-09-22T14:30:44.476Z,27.70
2018-09-22T14:33:11.795Z,28.00
2018-09-22T14:35:39.032Z,28.60
2018-09-22T14:38:06.285Z,29.10
2018-09-22T14:40:33.595Z,29.60
2018-09-22T14:43:00.811Z,29.20
2018-09-22T14:45:28.070Z,29.10
2018-09-22T14:47:55.306Z,29.90
2018-09-22T14:50:22.583Z,29.50
2018-09-22T14:52:49.831Z,31.70
2018-09-22T14:55:17.193Z,32.60
2018-09-22T14:57:44.448Z,33.10
2018-09-22T15:00:11.658Z,33.20
2018-09-22T15:02:39.162Z,33.20
2018-09-22T15:05:06.480Z,32.50
2018-09-22T15:07:33.871Z,31.00
2018-09-22T15:10:01.339Z,30.00
2018-09-22T15:12:28.587Z,31.30
2018-09-22T15:14:55.820Z,31.60
2018-09-22T15:17:23.146Z,32.10
2018-09-22T15:19:50.645Z,32.20
2018-09-22T15:22:17.896Z,31.10
2018-09-22T15:24:45.128Z,30.60
2018-09-22T15:27:12.418Z,30.00
2018-09-22T15:29:39.640Z,31.40
2018-09-22T15:32:07.033Z,33.10
2018-09-22T15:34:34.316Z,32.80
2018-09-22T15:37:01.613Z,33.40
2018-09-22T15:39:29.149Z,33.20
2018-09-22T15:41:56.387Z,34.60
2018-09-22T15:44:23.631Z,33.00
2018-09-22T15:46:50.895Z,35.00
2018-09-22T15:49:22.545Z,35.30
2018-09-22T15:51:49.767Z,35.50
2018-09-22T15:54:17.050Z,36.00
2018-09-22T15:56:44.286Z,37.00
2018-09-22T15:59:11.498Z,36.80
2018-09-22T16:01:38.739Z,36.50
2018-09-22T16:04:05.950Z,36.10
2018-09-22T16:06:33.220Z,36.90
2018-09-22T16:09:00.591Z,36.40
2018-09-22T16:11:27.863Z,37.30
2018-09-22T16:13:55.087Z,36.50
2018-09-22T16:16:22.384Z,37.30
2018-09-22T16:18:49.786Z,36.10
2018-09-22T16:21:17.091Z,37.60
2018-09-22T16:23:44.604Z,37.60
2018-09-22T16:26:11.891Z,38.30
2018-09-22T16:28:39.212Z,38.40
2018-09-22T16:31:06.627Z,38.80
2018-09-22T16:33:33.969Z,38.70
2018-09-22T16:36:01.212Z,39.50
2018-09-22T16:38:28.536Z,38.60
2018-09-22T16:40:55.787Z,38.50
2018-09-22T16:43:23.013Z,38.70
2018-09-22T16:45:50.237Z,38.90
2018-09-22T16:48:17.506Z,39.10
2018-09-22T16:50:45.064Z,39.40
2018-09-22T16:53:12.342Z,39.50
2018-09-22T16:55:39.557Z,39.60
2018-09-22T16:58:06.955Z,39.40
2018-09-22T17:00:37.019Z,40.10
2018-09-22T17:03:04.267Z,40.40
2018-09-22T17:05:31.584Z,40.10
2018-09-22T17:07:58.869Z,40.30
2018-09-22T17:10:26.112Z,40.70
2018-09-22T17:12:53.367Z,40.60
2018-09-22T17:15:20.632Z,41.80
2018-09-22T17:17:47.867Z,41.70
2018-09-22T17:20:15.121Z,43.10
2018-09-22T17:22:42.323Z,42.30
2018-09-22T17:25:09.639Z,42.20
2018-09-22T17:27:37.071Z,42.20
2018-09-22T17:30:04.480Z,42.20
2018-09-22T17:32:31.755Z,42.30
2018-09-22T17:34:58.963Z,43.60
2018-09-22T17:37:26.195Z,42.90
2018-09-22T17:39:53.472Z,43.50
2018-09-22T17:42:20.774Z,43.70
2018-09-22T17:44:48.051Z,44.20
2018-09-22T17:47:15.352Z,45.10
2018-09-22T17:49:42.595Z,45.70
2018-09-22T17:52:10.012Z,48.50
2018-09-22T17:54:37.387Z,47.30
2018-09-22T17:57:04.929Z,47.70
2018-09-22T17:59:32.253Z,47.10
2018-09-22T18:01:59.906Z,47.00
2018-09-22T18:04:27.164Z,47.00
2018-09-22T18:06:54.642Z,46.90
2018-09-22T18:09:21.866Z,46.90
2018-09-22T18:11:49.071Z,47.30
2018-09-22T18:14:16.291Z,48.10
2018-09-22T18:16:43.704Z,48.30
2018-09-22T18:19:10.898Z,48.60
2018-09-22T18:21:38.159Z,48.40
2018-09-22T18:24:16.372Z,48.50
2018-09-22T18:26:43.618Z,48.60
2018-09-22T18:29:11.899Z,49.20
2018-09-22T18:31:39.111Z,49.70
2018-09-22T18:34:06.533Z,50.10
2018-09-22T18:36:33.669Z,50.40
2018-09-22T18:39:00.935Z,51.10
2018-09-22T18:41:28.994Z,50.40
2018-09-22T18:43:56.224Z,52.00
2018-09-22T18:46:23.571Z,52.20
2018-09-22T18:48:51.783Z,52.10
2018-09-22T18:51:19.425Z,52.00
2018-09-22T18:53:46.985Z,51.50
2018-09-22T18:56:14.367Z,52.20
2018-09-22T18:58:41.740Z,52.50
2018-09-22T19:01:09.102Z,56.10
2018-09-22T19:03:36.411Z,56.20
2018-09-22T19:06:03.951Z,57.60
2018-09-22T19:08:31.087Z,62.10
2018-09-22T19:10:58.317Z,66.50
2018-09-22T19:13:29.332Z,72.10
2018-09-22T19:15:59.579Z,83.10
2018-09-22T19:18:32.107Z,90.60
2018-09-22T19:21:07.193Z,96.50
2018-09-22T19:23:37.404Z,99.90
2018-09-22T19:26:12.736Z,99.90
2018-09-22T19:29:00.184Z,99.90
2018-09-22T19:31:31.247Z,99.90
2018-09-22T19:34:02.683Z,99.90
2018-09-22T19:36:34.759Z,99.90
2018-09-22T19:39:08.272Z,99.90
2018-09-22T19:43:44.936Z,99.90
2018-09-22T19:46:30.908Z,99.90
2018-09-22T19:49:01.958Z,99.90
2018-09-22T19:51:32.762Z,99.90
2018-09-22T19:54:01.243Z,99.90
2018-09-22T19:56:28.490Z,99.90
2018-09-22T19:58:56.747Z,99.90
2018-09-22T20:01:24.350Z,99.90
2018-09-22T20:03:51.695Z,99.90
2018-09-22T20:06:19.115Z,99.90
2018-09-22T20:08:46.440Z,99.90
2018-09-22T20:11:13.794Z,99.90
2018-09-22T20:13:41.124Z,99.90
2018-09-22T20:16:08.554Z,99.90
2018-09-22T20:18:35.820Z,99.90
2018-09-22T20:21:03.092Z,99.90
2018-09-22T20:23:30.324Z,99.90
2018-09-22T20:25:57.636Z,99.90
2018-09-22T20:28:25.048Z,99.90
2018-09-22T20:30:52.322Z,99.90
2018-09-22T20:33:19.622Z,99.90
2018-09-22T20:35:46.932Z,99.90
2018-09-22T20:38:14.158Z,99.90
2018-09-22T20:40:41.522Z,99.90
2018-09-22T20:43:08.810Z,99.90
2018-09-22T20:45:36.168Z,99.90
2018-09-22T20:48:03.527Z,99.90
2018-09-22T20:50:31.512Z,99.90
2018-09-22T20:52:58.683Z,99.90
2018-09-22T20:55:26.071Z,99.90
2018-09-22T20:57:53.334Z,99.90
2018-09-22T21:00:20.595Z,99.90
2018-09-22T21:02:47.827Z,99.90
2018-09-22T21:05:15.088Z,99.90
2018-09-22T21:07:42.372Z,99.90
2018-09-22T21:10:09.638Z,99.90
2018-09-22T21:12:37.594Z,99.90
2018-09-22T21:15:04.852Z,99.90
2018-09-22T21:17:32.084Z,99.90
2018-09-22T21:19:59.315Z,99.90
2018-09-22T21:22:26.618Z,99.90
2018-09-22T21:24:53.848Z,99.90
2018-09-22T21:27:21.189Z,99.90
2018-09-22T21:29:48.548Z,99.90
2018-09-22T21:32:15.777Z,99.90
2018-09-22T21:34:43.038Z,99.90
2018-09-22T21:37:10.368Z,99.90
2018-09-22T21:39:37.600Z,99.90
2018-09-22T21:42:04.867Z,99.90
2018-09-22T21:44:32.152Z,99.90
2018-09-22T21:46:59.362Z,99.90
2018-09-22T21:49:26.628Z,99.90
2018-09-22T21:51:53.832Z,99.90
2018-09-22T21:54:21.121Z,99.90
2018-09-22T21:56:48.540Z,99.90
2018-09-22T21:59:15.847Z,99.90
2018-09-22T22:01:43.104Z,99.90
2018-09-22T22:04:10.975Z,99.90
2018-09-22T22:06:38.221Z,99.90
2018-09-22T22:09:13.705Z,99.90
2018-09-22T22:11:43.283Z,99.90
2018-09-22T22:14:12.603Z,99.90
2018-09-22T22:16:48.296Z,99.90
2018-09-22T22:19:16.694Z,99.90
2018-09-22T22:21:44.097Z,99.90
2018-09-22T22:24:12.315Z,99.90
2018-09-22T22:26:40.753Z,99.90
2018-09-22T22:29:12.960Z,99.90
2018-09-22T22:31:43.250Z,99.90
2018-09-22T22:34:11.386Z,99.90
2018-09-22T22:36:47.980Z,99.90
2018-09-22T22:39:15.375Z,99.90
2018-09-22T22:41:44.132Z,99.90
2018-09-22T22:44:11.377Z,99.90
2018-09-22T22:46:38.575Z,99.90
2018-09-22T22:49:05.806Z,99.90
2018-09-22T22:51:33.003Z,99.90
2018-09-22T22:54:00.231Z,99.90
2018-09-22T22:56:27.462Z,99.90
2018-09-22T22:58:54.700Z,99.90
2018-09-22T23:01:22.035Z,99.90
2018-09-22T23:03:49.384Z,99.90
2018-09-22T23:06:16.614Z,99.90
2018-09-22T23:08:44.335Z,99.90
2018-09-22T23:11:11.536Z,99.90
2018-09-22T23:13:38.754Z,99.90
2018-09-22T23:16:05.995Z,99.90
2018-09-22T23:18:33.229Z,99.90
2018-09-22T23:21:00.471Z,99.90
2018-09-22T23:23:27.653Z,99.90
2018-09-22T23:25:54.984Z,99.90
2018-09-22T23:28:22.211Z,99.90
2018-09-22T23:30:49.438Z,99.90
2018-09-22T23:33:16.660Z,99.90
2018-09-22T23:35:43.876Z,99.90
2018-09-22T23:38:11.219Z,99.90
2018-09-22T23:40:38.847Z,99.90
2018-09-22T23:43:06.085Z,99.90
2018-09-22T23:45:33.315Z,99.90
2018-09-22T23:48:00.695Z,99.90
2018-09-22T23:50:27.923Z,99.90
2018-09-22T23:52:55.230Z,99.90
2018-09-22T23:55:22.520Z,99.90
2018-09-22T23:57:49.826Z,99.90
